メインページ
METAR-TAF:

METAR-TAF

空港 :

ビールジャンド, イラン

緯度: 32-52N, 経度: 059-12E, 海抜: 1491m

現時点の気象観測

当レポートは56分前の04:00(UTC)に作成
東/南東の風 6kt
気温 22°C
湿度 21%
気圧 1013 hPa
視程10km以上
1,500メートル以下は雲なし、積乱雲なし

METAR: OIMB 220400Z 12006KT CAVOK 22/M01 Q1013

時間: 09:26 (04:56 UTC)


TAF: 見つかりません

4,000以上の空港の気象観測と天気予報(METAR報とTAF報)

利用可能な観測所は地図上に黄色い丸と赤い丸で示す。

丸の上にカーソルを重ねると観測所名を参照できる。

次にクリックすると気象観測と天気予報を参照できる。

マップの切り替え:黒色「×」印の緑ボタンをクリックして拡大、「-」印の緑ボタンをクリックして縮小、緑色の三角印をクリックして隣りの地図に切り替え


METAR-TAF: